sensor_id;sensor_type;location;lat;lon;timestamp;P1;durP1;ratioP1;P2;durP2;ratioP2
60468;SDS011;46316;47.582;10.238;2022-07-25T00:00:05;13.68;;;12.38;;
60468;SDS011;46316;47.582;10.238;2022-07-25T00:02:33;13.95;;;12.55;;
60468;SDS011;46316;47.582;10.238;2022-07-25T00:04:59;14.15;;;12.68;;
60468;SDS011;46316;47.582;10.238;2022-07-25T00:07:25;12.77;;;11.57;;
60468;SDS011;46316;47.582;10.238;2022-07-25T00:09:50;13.45;;;12.07;;
60468;SDS011;46316;47.582;10.238;2022-07-25T00:12:16;12.50;;;11.32;;
60468;SDS011;46316;47.582;10.238;2022-07-25T00:14:42;13.93;;;12.63;;
60468;SDS011;46316;47.582;10.238;2022-07-25T00:17:08;13.93;;;12.63;;
60468;SDS011;46316;47.582;10.238;2022-07-25T00:19:34;13.80;;;12.50;;
60468;SDS011;46316;47.582;10.238;2022-07-25T00:21:59;13.13;;;11.95;;
60468;SDS011;46316;47.582;10.238;2022-07-25T00:24:25;14.18;;;12.88;;
60468;SDS011;46316;47.582;10.238;2022-07-25T00:26:50;14.38;;;13.07;;
60468;SDS011;46316;47.582;10.238;2022-07-25T00:29:16;14.55;;;13.15;;
60468;SDS011;46316;47.582;10.238;2022-07-25T00:31:41;14.07;;;12.75;;
60468;SDS011;46316;47.582;10.238;2022-07-25T00:34:07;13.40;;;12.10;;
60468;SDS011;46316;47.582;10.238;2022-07-25T00:36:33;13.90;;;12.60;;
60468;SDS011;46316;47.582;10.238;2022-07-25T00:38:59;13.35;;;12.15;;
60468;SDS011;46316;47.582;10.238;2022-07-25T00:41:24;13.23;;;12.13;;
60468;SDS011;46316;47.582;10.238;2022-07-25T00:43:50;13.63;;;12.32;;
60468;SDS011;46316;47.582;10.238;2022-07-25T00:46:16;12.98;;;11.82;;
60468;SDS011;46316;47.582;10.238;2022-07-25T00:48:42;14.27;;;12.90;;
60468;SDS011;46316;47.582;10.238;2022-07-25T00:51:08;13.07;;;11.98;;
60468;SDS011;46316;47.582;10.238;2022-07-25T00:53:35;13.18;;;11.98;;
60468;SDS011;46316;47.582;10.238;2022-07-25T00:56:02;12.80;;;11.40;;
60468;SDS011;46316;47.582;10.238;2022-07-25T00:58:29;13.02;;;11.82;;
60468;SDS011;46316;47.582;10.238;2022-07-25T01:00:54;14.25;;;12.75;;
60468;SDS011;46316;47.582;10.238;2022-07-25T01:03:20;14.57;;;13.18;;
60468;SDS011;46316;47.582;10.238;2022-07-25T01:05:46;13.18;;;11.88;;
60468;SDS011;46316;47.582;10.238;2022-07-25T01:08:12;14.80;;;13.40;;
60468;SDS011;46316;47.582;10.238;2022-07-25T01:10:37;15.27;;;13.30;;
60468;SDS011;46316;47.582;10.238;2022-07-25T01:13:03;13.02;;;11.73;;
60468;SDS011;46316;47.582;10.238;2022-07-25T01:15:29;14.27;;;12.88;;
60468;SDS011;46316;47.582;10.238;2022-07-25T01:17:55;14.20;;;12.75;;
60468;SDS011;46316;47.582;10.238;2022-07-25T01:20:22;13.30;;;11.85;;
60468;SDS011;46316;47.582;10.238;2022-07-25T01:22:49;12.68;;;11.48;;
60468;SDS011;46316;47.582;10.238;2022-07-25T01:25:15;13.05;;;11.85;;
60468;SDS011;46316;47.582;10.238;2022-07-25T01:27:41;12.93;;;11.73;;
60468;SDS011;46316;47.582;10.238;2022-07-25T01:30:08;13.90;;;12.25;;
60468;SDS011;46316;47.582;10.238;2022-07-25T01:32:35;13.85;;;12.52;;
60468;SDS011;46316;47.582;10.238;2022-07-25T01:35:03;13.55;;;12.25;;
60468;SDS011;46316;47.582;10.238;2022-07-25T01:37:29;14.05;;;12.73;;
60468;SDS011;46316;47.582;10.238;2022-07-25T01:39:55;13.88;;;12.57;;
60468;SDS011;46316;47.582;10.238;2022-07-25T01:42:20;13.45;;;12.20;;
60468;SDS011;46316;47.582;10.238;2022-07-25T01:44:46;14.18;;;12.77;;
60468;SDS011;46316;47.582;10.238;2022-07-25T01:47:12;13.32;;;12.02;;
60468;SDS011;46316;47.582;10.238;2022-07-25T01:49:38;13.93;;;12.52;;
60468;SDS011;46316;47.582;10.238;2022-07-25T01:52:03;14.38;;;13.13;;
60468;SDS011;46316;47.582;10.238;2022-07-25T01:54:29;14.20;;;12.73;;
60468;SDS011;46316;47.582;10.238;2022-07-25T01:56:56;14.25;;;12.95;;
60468;SDS011;46316;47.582;10.238;2022-07-25T01:59:21;14.85;;;13.30;;
60468;SDS011;46316;47.582;10.238;2022-07-25T02:01:47;13.57;;;12.23;;
60468;SDS011;46316;47.582;10.238;2022-07-25T02:04:12;14.95;;;13.55;;
60468;SDS011;46316;47.582;10.238;2022-07-25T02:06:38;13.88;;;12.68;;
60468;SDS011;46316;47.582;10.238;2022-07-25T02:09:05;13.85;;;12.63;;
60468;SDS011;46316;47.582;10.238;2022-07-25T02:11:31;14.32;;;12.82;;
60468;SDS011;46316;47.582;10.238;2022-07-25T02:13:57;14.60;;;13.18;;
60468;SDS011;46316;47.582;10.238;2022-07-25T02:16:22;14.10;;;12.70;;
60468;SDS011;46316;47.582;10.238;2022-07-25T02:18:48;15.10;;;13.55;;
60468;SDS011;46316;47.582;10.238;2022-07-25T02:21:13;15.25;;;12.55;;
60468;SDS011;46316;47.582;10.238;2022-07-25T02:23:39;15.32;;;13.70;;
60468;SDS011;46316;47.582;10.238;2022-07-25T02:26:05;14.55;;;13.25;;
60468;SDS011;46316;47.582;10.238;2022-07-25T02:28:30;15.07;;;13.57;;
60468;SDS011;46316;47.582;10.238;2022-07-25T02:30:56;13.18;;;11.98;;
60468;SDS011;46316;47.582;10.238;2022-07-25T02:33:21;14.70;;;13.27;;
60468;SDS011;46316;47.582;10.238;2022-07-25T02:35:47;14.48;;;13.18;;
60468;SDS011;46316;47.582;10.238;2022-07-25T02:38:14;14.65;;;13.25;;
60468;SDS011;46316;47.582;10.238;2022-07-25T02:40:44;14.25;;;12.95;;
60468;SDS011;46316;47.582;10.238;2022-07-25T02:43:10;14.43;;;12.85;;
60468;SDS011;46316;47.582;10.238;2022-07-25T02:45:36;14.35;;;12.88;;
60468;SDS011;46316;47.582;10.238;2022-07-25T02:48:02;14.60;;;13.23;;
60468;SDS011;46316;47.582;10.238;2022-07-25T02:50:27;14.77;;;13.27;;
60468;SDS011;46316;47.582;10.238;2022-07-25T02:52:53;14.70;;;12.98;;
60468;SDS011;46316;47.582;10.238;2022-07-25T02:55:18;14.55;;;12.95;;
60468;SDS011;46316;47.582;10.238;2022-07-25T02:57:44;13.65;;;12.40;;
60468;SDS011;46316;47.582;10.238;2022-07-25T03:00:10;14.20;;;12.82;;
60468;SDS011;46316;47.582;10.238;2022-07-25T03:02:36;14.02;;;12.73;;
60468;SDS011;46316;47.582;10.238;2022-07-25T03:05:09;13.50;;;12.20;;
60468;SDS011;46316;47.582;10.238;2022-07-25T03:07:36;14.38;;;12.98;;
60468;SDS011;46316;47.582;10.238;2022-07-25T03:10:03;14.38;;;12.88;;
60468;SDS011;46316;47.582;10.238;2022-07-25T03:12:29;14.38;;;13.02;;
60468;SDS011;46316;47.582;10.238;2022-07-25T03:14:56;14.48;;;13.07;;
60468;SDS011;46316;47.582;10.238;2022-07-25T03:17:22;13.88;;;12.57;;
60468;SDS011;46316;47.582;10.238;2022-07-25T03:19:48;13.60;;;12.40;;
60468;SDS011;46316;47.582;10.238;2022-07-25T03:22:13;13.00;;;11.70;;
60468;SDS011;46316;47.582;10.238;2022-07-25T03:24:39;14.15;;;12.73;;
60468;SDS011;46316;47.582;10.238;2022-07-25T03:27:04;15.52;;;13.93;;
60468;SDS011;46316;47.582;10.238;2022-07-25T03:29:30;14.13;;;12.77;;
60468;SDS011;46316;47.582;10.238;2022-07-25T03:31:55;14.35;;;13.05;;
60468;SDS011;46316;47.582;10.238;2022-07-25T03:34:21;14.68;;;13.32;;
60468;SDS011;46316;47.582;10.238;2022-07-25T03:36:47;14.50;;;13.18;;
60468;SDS011;46316;47.582;10.238;2022-07-25T03:39:12;14.77;;;13.18;;
60468;SDS011;46316;47.582;10.238;2022-07-25T03:41:38;15.38;;;13.98;;
60468;SDS011;46316;47.582;10.238;2022-07-25T03:44:04;14.75;;;13.25;;
60468;SDS011;46316;47.582;10.238;2022-07-25T03:46:30;14.35;;;13.05;;
60468;SDS011;46316;47.582;10.238;2022-07-25T03:48:56;16.35;;;14.52;;
60468;SDS011;46316;47.582;10.238;2022-07-25T03:51:22;15.75;;;14.07;;
60468;SDS011;46316;47.582;10.238;2022-07-25T03:53:47;15.80;;;14.25;;
60468;SDS011;46316;47.582;10.238;2022-07-25T03:56:29;14.70;;;13.13;;
60468;SDS011;46316;47.582;10.238;2022-07-25T03:58:55;14.43;;;13.00;;
60468;SDS011;46316;47.582;10.238;2022-07-25T04:01:21;14.73;;;13.32;;
60468;SDS011;46316;47.582;10.238;2022-07-25T04:03:47;13.68;;;12.25;;
60468;SDS011;46316;47.582;10.238;2022-07-25T04:06:12;14.73;;;13.32;;
60468;SDS011;46316;47.582;10.238;2022-07-25T04:08:39;13.88;;;12.73;;
60468;SDS011;46316;47.582;10.238;2022-07-25T04:11:05;14.93;;;12.63;;
60468;SDS011;46316;47.582;10.238;2022-07-25T04:13:30;14.75;;;13.25;;
60468;SDS011;46316;47.582;10.238;2022-07-25T04:15:57;16.13;;;13.32;;
60468;SDS011;46316;47.582;10.238;2022-07-25T04:18:22;14.90;;;13.25;;
60468;SDS011;46316;47.582;10.238;2022-07-25T04:20:48;15.07;;;13.57;;
60468;SDS011;46316;47.582;10.238;2022-07-25T04:23:13;15.88;;;13.85;;
60468;SDS011;46316;47.582;10.238;2022-07-25T04:25:39;13.85;;;12.45;;
60468;SDS011;46316;47.582;10.238;2022-07-25T04:28:05;13.38;;;12.07;;
60468;SDS011;46316;47.582;10.238;2022-07-25T04:30:30;13.18;;;11.70;;
60468;SDS011;46316;47.582;10.238;2022-07-25T04:32:56;12.23;;;10.90;;
60468;SDS011;46316;47.582;10.238;2022-07-25T04:35:21;12.45;;;11.23;;
60468;SDS011;46316;47.582;10.238;2022-07-25T04:37:47;12.40;;;11.30;;
60468;SDS011;46316;47.582;10.238;2022-07-25T04:40:13;12.20;;;10.40;;
60468;SDS011;46316;47.582;10.238;2022-07-25T04:42:39;11.35;;;10.15;;
60468;SDS011;46316;47.582;10.238;2022-07-25T04:45:05;9.93;;;9.02;;
60468;SDS011;46316;47.582;10.238;2022-07-25T04:47:31;11.05;;;9.90;;
60468;SDS011;46316;47.582;10.238;2022-07-25T04:49:56;9.85;;;9.05;;
60468;SDS011;46316;47.582;10.238;2022-07-25T04:52:22;9.85;;;8.93;;
60468;SDS011;46316;47.582;10.238;2022-07-25T04:54:47;10.30;;;9.30;;
60468;SDS011;46316;47.582;10.238;2022-07-25T05:00:30;11.15;;;10.15;;
60468;SDS011;46316;47.582;10.238;2022-07-25T05:03:16;11.25;;;10.35;;
60468;SDS011;46316;47.582;10.238;2022-07-25T05:05:44;10.90;;;9.82;;
60468;SDS011;46316;47.582;10.238;2022-07-25T05:08:21;10.32;;;9.48;;
60468;SDS011;46316;47.582;10.238;2022-07-25T05:10:47;9.70;;;8.90;;
60468;SDS011;46316;47.582;10.238;2022-07-25T05:23:13;9.95;;;8.95;;
60468;SDS011;46316;47.582;10.238;2022-07-25T05:26:16;10.43;;;9.40;;
60468;SDS011;46316;47.582;10.238;2022-07-25T05:29:02;9.55;;;8.77;;
60468;SDS011;46316;47.582;10.238;2022-07-25T05:35:14;10.13;;;9.13;;
60468;SDS011;46316;47.582;10.238;2022-07-25T05:50:47;9.82;;;8.93;;
60468;SDS011;46316;47.582;10.238;2022-07-25T05:53:36;9.40;;;8.05;;
60468;SDS011;46316;47.582;10.238;2022-07-25T05:56:18;9.85;;;8.13;;
60468;SDS011;46316;47.582;10.238;2022-07-25T05:59:06;11.82;;;9.38;;
60468;SDS011;46316;47.582;10.238;2022-07-25T06:01:34;9.57;;;8.65;;
60468;SDS011;46316;47.582;10.238;2022-07-25T06:04:00;11.50;;;9.10;;
60468;SDS011;46316;47.582;10.238;2022-07-25T06:06:32;8.80;;;8.13;;
60468;SDS011;46316;47.582;10.238;2022-07-25T06:09:03;9.57;;;8.23;;
60468;SDS011;46316;47.582;10.238;2022-07-25T06:11:30;9.50;;;8.60;;
60468;SDS011;46316;47.582;10.238;2022-07-25T06:13:56;9.25;;;8.45;;
60468;SDS011;46316;47.582;10.238;2022-07-25T06:16:22;9.40;;;7.88;;
60468;SDS011;46316;47.582;10.238;2022-07-25T06:18:48;8.68;;;7.88;;
60468;SDS011;46316;47.582;10.238;2022-07-25T06:21:13;8.40;;;7.70;;
60468;SDS011;46316;47.582;10.238;2022-07-25T06:23:40;8.35;;;7.65;;
60468;SDS011;46316;47.582;10.238;2022-07-25T06:26:09;8.63;;;7.82;;
60468;SDS011;46316;47.582;10.238;2022-07-25T06:28:38;8.02;;;7.32;;
60468;SDS011;46316;47.582;10.238;2022-07-25T06:31:04;8.15;;;7.43;;
60468;SDS011;46316;47.582;10.238;2022-07-25T06:33:41;8.50;;;7.55;;
60468;SDS011;46316;47.582;10.238;2022-07-25T06:36:06;8.25;;;7.63;;
60468;SDS011;46316;47.582;10.238;2022-07-25T06:44:54;8.10;;;7.25;;
60468;SDS011;46316;47.582;10.238;2022-07-25T06:47:20;10.10;;;7.85;;
60468;SDS011;46316;47.582;10.238;2022-07-25T06:50:10;8.73;;;7.90;;
60468;SDS011;46316;47.582;10.238;2022-07-25T06:52:47;7.68;;;7.07;;
60468;SDS011;46316;47.582;10.238;2022-07-25T06:55:17;8.35;;;7.57;;
60468;SDS011;46316;47.582;10.238;2022-07-25T06:57:43;8.45;;;7.72;;
60468;SDS011;46316;47.582;10.238;2022-07-25T07:00:13;8.80;;;7.90;;
60468;SDS011;46316;47.582;10.238;2022-07-25T07:02:46;8.70;;;8.05;;
60468;SDS011;46316;47.582;10.238;2022-07-25T07:08:31;7.78;;;7.13;;
60468;SDS011;46316;47.582;10.238;2022-07-25T07:10:58;8.32;;;7.50;;
60468;SDS011;46316;47.582;10.238;2022-07-25T07:14:05;7.93;;;7.20;;
60468;SDS011;46316;47.582;10.238;2022-07-25T07:16:54;7.68;;;6.88;;
60468;SDS011;46316;47.582;10.238;2022-07-25T07:19:45;8.90;;;7.47;;
60468;SDS011;46316;47.582;10.238;2022-07-25T07:22:16;8.05;;;7.35;;
60468;SDS011;46316;47.582;10.238;2022-07-25T07:24:41;7.47;;;6.85;;
60468;SDS011;46316;47.582;10.238;2022-07-25T07:27:10;7.50;;;6.90;;
60468;SDS011;46316;47.582;10.238;2022-07-25T07:29:36;8.35;;;7.40;;
60468;SDS011;46316;47.582;10.238;2022-07-25T07:32:04;7.13;;;6.53;;
60468;SDS011;46316;47.582;10.238;2022-07-25T07:34:31;8.40;;;7.53;;
60468;SDS011;46316;47.582;10.238;2022-07-25T07:36:57;7.68;;;7.03;;
60468;SDS011;46316;47.582;10.238;2022-07-25T07:39:22;8.02;;;7.32;;
60468;SDS011;46316;47.582;10.238;2022-07-25T07:41:48;8.13;;;7.38;;
60468;SDS011;46316;47.582;10.238;2022-07-25T07:44:14;9.40;;;7.25;;
60468;SDS011;46316;47.582;10.238;2022-07-25T07:46:40;7.75;;;7.13;;
60468;SDS011;46316;47.582;10.238;2022-07-25T07:49:06;7.72;;;6.60;;
60468;SDS011;46316;47.582;10.238;2022-07-25T07:51:31;7.28;;;6.68;;
60468;SDS011;46316;47.582;10.238;2022-07-25T07:53:58;8.15;;;7.38;;
60468;SDS011;46316;47.582;10.238;2022-07-25T07:56:42;6.30;;;5.80;;
60468;SDS011;46316;47.582;10.238;2022-07-25T07:59:09;6.07;;;5.63;;
60468;SDS011;46316;47.582;10.238;2022-07-25T08:01:35;6.28;;;5.70;;
60468;SDS011;46316;47.582;10.238;2022-07-25T08:04:01;6.85;;;6.25;;
60468;SDS011;46316;47.582;10.238;2022-07-25T08:06:27;6.55;;;5.97;;
60468;SDS011;46316;47.582;10.238;2022-07-25T08:08:53;6.38;;;5.82;;
60468;SDS011;46316;47.582;10.238;2022-07-25T08:11:18;5.97;;;5.47;;
60468;SDS011;46316;47.582;10.238;2022-07-25T08:13:44;5.80;;;5.40;;
60468;SDS011;46316;47.582;10.238;2022-07-25T08:16:09;6.40;;;5.80;;
60468;SDS011;46316;47.582;10.238;2022-07-25T08:18:37;5.57;;;5.17;;
60468;SDS011;46316;47.582;10.238;2022-07-25T08:21:03;6.10;;;5.63;;
60468;SDS011;46316;47.582;10.238;2022-07-25T08:23:30;5.05;;;4.65;;
60468;SDS011;46316;47.582;10.238;2022-07-25T08:28:24;5.32;;;4.65;;
60468;SDS011;46316;47.582;10.238;2022-07-25T08:30:50;6.05;;;4.35;;
60468;SDS011;46316;47.582;10.238;2022-07-25T08:33:16;5.15;;;4.75;;
60468;SDS011;46316;47.582;10.238;2022-07-25T08:35:46;5.80;;;4.95;;
60468;SDS011;46316;47.582;10.238;2022-07-25T08:38:17;4.80;;;4.40;;
60468;SDS011;46316;47.582;10.238;2022-07-25T08:40:44;5.43;;;4.93;;
60468;SDS011;46316;47.582;10.238;2022-07-25T08:43:11;7.57;;;4.55;;
60468;SDS011;46316;47.582;10.238;2022-07-25T08:48:12;4.25;;;4.00;;
60468;SDS011;46316;47.582;10.238;2022-07-25T08:50:40;4.13;;;3.72;;
60468;SDS011;46316;47.582;10.238;2022-07-25T08:53:06;4.90;;;4.50;;
60468;SDS011;46316;47.582;10.238;2022-07-25T08:55:32;4.47;;;4.07;;
60468;SDS011;46316;47.582;10.238;2022-07-25T08:57:58;4.63;;;4.30;;
60468;SDS011;46316;47.582;10.238;2022-07-25T09:00:24;4.38;;;4.03;;
60468;SDS011;46316;47.582;10.238;2022-07-25T09:05:20;4.75;;;4.20;;
60468;SDS011;46316;47.582;10.238;2022-07-25T09:07:47;4.15;;;3.60;;
60468;SDS011;46316;47.582;10.238;2022-07-25T09:10:16;4.07;;;3.78;;
60468;SDS011;46316;47.582;10.238;2022-07-25T09:15:22;4.38;;;4.07;;
60468;SDS011;46316;47.582;10.238;2022-07-25T09:17:55;4.50;;;4.10;;
60468;SDS011;46316;47.582;10.238;2022-07-25T09:20:22;4.45;;;4.05;;
60468;SDS011;46316;47.582;10.238;2022-07-25T09:22:49;4.80;;;4.30;;
60468;SDS011;46316;47.582;10.238;2022-07-25T09:25:24;4.32;;;4.03;;
60468;SDS011;46316;47.582;10.238;2022-07-25T09:27:53;4.55;;;4.20;;
60468;SDS011;46316;47.582;10.238;2022-07-25T09:30:20;4.25;;;3.95;;
60468;SDS011;46316;47.582;10.238;2022-07-25T09:32:46;4.32;;;3.92;;
60468;SDS011;46316;47.582;10.238;2022-07-25T09:35:28;4.20;;;3.83;;
60468;SDS011;46316;47.582;10.238;2022-07-25T09:38:11;4.00;;;3.70;;
60468;SDS011;46316;47.582;10.238;2022-07-25T09:40:38;3.67;;;3.47;;
60468;SDS011;46316;47.582;10.238;2022-07-25T09:43:04;4.20;;;3.90;;
60468;SDS011;46316;47.582;10.238;2022-07-25T09:45:30;3.80;;;3.50;;
60468;SDS011;46316;47.582;10.238;2022-07-25T09:47:58;3.85;;;3.60;;
60468;SDS011;46316;47.582;10.238;2022-07-25T09:50:26;4.30;;;3.90;;
60468;SDS011;46316;47.582;10.238;2022-07-25T09:52:54;7.47;;;6.00;;
60468;SDS011;46316;47.582;10.238;2022-07-25T09:55:21;6.00;;;5.40;;
60468;SDS011;46316;47.582;10.238;2022-07-25T09:57:47;4.85;;;4.43;;
60468;SDS011;46316;47.582;10.238;2022-07-25T10:00:24;5.43;;;4.88;;
60468;SDS011;46316;47.582;10.238;2022-07-25T10:02:55;12.15;;;11.05;;
60468;SDS011;46316;47.582;10.238;2022-07-25T10:05:50;9.80;;;8.80;;
60468;SDS011;46316;47.582;10.238;2022-07-25T10:08:28;6.80;;;6.30;;
60468;SDS011;46316;47.582;10.238;2022-07-25T10:10:58;5.22;;;4.82;;
60468;SDS011;46316;47.582;10.238;2022-07-25T10:13:28;8.23;;;7.63;;
60468;SDS011;46316;47.582;10.238;2022-07-25T10:15:55;7.28;;;6.63;;
60468;SDS011;46316;47.582;10.238;2022-07-25T10:18:22;6.63;;;6.10;;
60468;SDS011;46316;47.582;10.238;2022-07-25T10:20:51;7.57;;;6.82;;
60468;SDS011;46316;47.582;10.238;2022-07-25T10:23:23;7.35;;;6.75;;
60468;SDS011;46316;47.582;10.238;2022-07-25T10:28:40;6.38;;;5.88;;
60468;SDS011;46316;47.582;10.238;2022-07-25T10:33:52;6.93;;;6.30;;
60468;SDS011;46316;47.582;10.238;2022-07-25T10:36:19;5.75;;;5.15;;
60468;SDS011;46316;47.582;10.238;2022-07-25T10:38:49;5.07;;;4.68;;
60468;SDS011;46316;47.582;10.238;2022-07-25T10:41:15;5.20;;;4.70;;
60468;SDS011;46316;47.582;10.238;2022-07-25T10:43:42;5.60;;;5.13;;
60468;SDS011;46316;47.582;10.238;2022-07-25T10:46:11;4.28;;;3.97;;
60468;SDS011;46316;47.582;10.238;2022-07-25T10:48:38;5.43;;;4.63;;
60468;SDS011;46316;47.582;10.238;2022-07-25T10:51:05;5.03;;;4.63;;
60468;SDS011;46316;47.582;10.238;2022-07-25T10:56:17;4.57;;;4.18;;
60468;SDS011;46316;47.582;10.238;2022-07-25T10:58:49;4.55;;;4.15;;
60468;SDS011;46316;47.582;10.238;2022-07-25T11:03:47;5.13;;;4.72;;
60468;SDS011;46316;47.582;10.238;2022-07-25T11:06:14;5.30;;;4.45;;
60468;SDS011;46316;47.582;10.238;2022-07-25T11:08:41;4.70;;;4.30;;
60468;SDS011;46316;47.582;10.238;2022-07-25T11:11:08;5.15;;;4.78;;
60468;SDS011;46316;47.582;10.238;2022-07-25T11:13:38;5.05;;;4.65;;
60468;SDS011;46316;47.582;10.238;2022-07-25T11:16:05;5.05;;;4.65;;
60468;SDS011;46316;47.582;10.238;2022-07-25T11:18:31;5.25;;;4.85;;
60468;SDS011;46316;47.582;10.238;2022-07-25T11:21:02;5.10;;;4.70;;
60468;SDS011;46316;47.582;10.238;2022-07-25T11:23:29;4.90;;;4.60;;
60468;SDS011;46316;47.582;10.238;2022-07-25T11:26:05;5.50;;;5.00;;
60468;SDS011;46316;47.582;10.238;2022-07-25T11:28:37;8.98;;;5.20;;
60468;SDS011;46316;47.582;10.238;2022-07-25T11:31:04;5.75;;;5.25;;
60468;SDS011;46316;47.582;10.238;2022-07-25T11:33:30;5.65;;;5.25;;
60468;SDS011;46316;47.582;10.238;2022-07-25T11:35:56;6.03;;;5.53;;
60468;SDS011;46316;47.582;10.238;2022-07-25T11:38:23;6.28;;;5.75;;
60468;SDS011;46316;47.582;10.238;2022-07-25T11:40:49;5.70;;;5.20;;
60468;SDS011;46316;47.582;10.238;2022-07-25T11:43:22;5.57;;;5.07;;
60468;SDS011;46316;47.582;10.238;2022-07-25T11:45:58;6.00;;;5.40;;
60468;SDS011;46316;47.582;10.238;2022-07-25T11:48:32;6.47;;;5.80;;
60468;SDS011;46316;47.582;10.238;2022-07-25T11:51:07;5.97;;;5.50;;
60468;SDS011;46316;47.582;10.238;2022-07-25T11:53:37;5.30;;;4.90;;
60468;SDS011;46316;47.582;10.238;2022-07-25T11:56:14;6.85;;;5.63;;
60468;SDS011;46316;47.582;10.238;2022-07-25T11:58:48;6.25;;;5.70;;
60468;SDS011;46316;47.582;10.238;2022-07-25T12:01:21;6.32;;;5.78;;
60468;SDS011;46316;47.582;10.238;2022-07-25T12:03:48;6.20;;;5.65;;
60468;SDS011;46316;47.582;10.238;2022-07-25T12:06:14;6.80;;;6.30;;
60468;SDS011;46316;47.582;10.238;2022-07-25T12:08:40;7.15;;;6.45;;
60468;SDS011;46316;47.582;10.238;2022-07-25T12:11:20;9.20;;;6.10;;
60468;SDS011;46316;47.582;10.238;2022-07-25T12:13:47;6.25;;;5.70;;
60468;SDS011;46316;47.582;10.238;2022-07-25T12:16:14;6.88;;;6.28;;
60468;SDS011;46316;47.582;10.238;2022-07-25T12:18:40;6.60;;;6.10;;
60468;SDS011;46316;47.582;10.238;2022-07-25T12:21:06;6.72;;;5.95;;
60468;SDS011;46316;47.582;10.238;2022-07-25T12:23:31;6.05;;;5.63;;
60468;SDS011;46316;47.582;10.238;2022-07-25T12:25:57;6.50;;;5.90;;
60468;SDS011;46316;47.582;10.238;2022-07-25T12:28:23;6.45;;;5.95;;
60468;SDS011;46316;47.582;10.238;2022-07-25T12:30:49;6.43;;;5.97;;
60468;SDS011;46316;47.582;10.238;2022-07-25T12:33:15;8.70;;;6.07;;
60468;SDS011;46316;47.582;10.238;2022-07-25T12:35:41;8.02;;;6.30;;
60468;SDS011;46316;47.582;10.238;2022-07-25T12:38:08;7.00;;;6.40;;
60468;SDS011;46316;47.582;10.238;2022-07-25T12:40:35;7.00;;;6.30;;
60468;SDS011;46316;47.582;10.238;2022-07-25T12:43:00;7.20;;;6.43;;
60468;SDS011;46316;47.582;10.238;2022-07-25T12:45:27;7.47;;;6.88;;
60468;SDS011;46316;47.582;10.238;2022-07-25T12:47:52;7.85;;;7.05;;
60468;SDS011;46316;47.582;10.238;2022-07-25T12:50:18;7.40;;;6.70;;
60468;SDS011;46316;47.582;10.238;2022-07-25T12:52:44;7.43;;;6.80;;
60468;SDS011;46316;47.582;10.238;2022-07-25T12:55:12;7.05;;;6.55;;
60468;SDS011;46316;47.582;10.238;2022-07-25T12:57:39;8.00;;;6.82;;
60468;SDS011;46316;47.582;10.238;2022-07-25T13:00:08;8.15;;;7.45;;
60468;SDS011;46316;47.582;10.238;2022-07-25T13:02:36;7.38;;;6.78;;
60468;SDS011;46316;47.582;10.238;2022-07-25T13:05:02;8.40;;;7.40;;
60468;SDS011;46316;47.582;10.238;2022-07-25T13:07:29;7.63;;;7.00;;
60468;SDS011;46316;47.582;10.238;2022-07-25T13:09:54;8.18;;;7.47;;
60468;SDS011;46316;47.582;10.238;2022-07-25T13:12:20;8.75;;;7.10;;
60468;SDS011;46316;47.582;10.238;2022-07-25T13:14:47;7.20;;;6.70;;
60468;SDS011;46316;47.582;10.238;2022-07-25T13:17:13;7.70;;;7.10;;
60468;SDS011;46316;47.582;10.238;2022-07-25T13:19:38;7.80;;;7.20;;
60468;SDS011;46316;47.582;10.238;2022-07-25T13:22:04;7.40;;;6.80;;
60468;SDS011;46316;47.582;10.238;2022-07-25T13:24:29;7.95;;;7.07;;
60468;SDS011;46316;47.582;10.238;2022-07-25T13:26:55;7.65;;;7.05;;
60468;SDS011;46316;47.582;10.238;2022-07-25T13:29:21;7.80;;;7.10;;
60468;SDS011;46316;47.582;10.238;2022-07-25T13:31:47;7.38;;;6.78;;
60468;SDS011;46316;47.582;10.238;2022-07-25T13:34:12;7.40;;;6.80;;
60468;SDS011;46316;47.582;10.238;2022-07-25T13:36:38;7.68;;;6.97;;
60468;SDS011;46316;47.582;10.238;2022-07-25T13:39:04;7.43;;;6.82;;
60468;SDS011;46316;47.582;10.238;2022-07-25T13:41:30;7.45;;;6.85;;
60468;SDS011;46316;47.582;10.238;2022-07-25T13:43:56;8.95;;;6.63;;
60468;SDS011;46316;47.582;10.238;2022-07-25T13:46:22;9.18;;;7.50;;
60468;SDS011;46316;47.582;10.238;2022-07-25T13:48:48;7.95;;;6.82;;
60468;SDS011;46316;47.582;10.238;2022-07-25T13:51:14;8.07;;;7.30;;
60468;SDS011;46316;47.582;10.238;2022-07-25T13:53:40;8.35;;;6.88;;
60468;SDS011;46316;47.582;10.238;2022-07-25T13:56:06;7.57;;;6.85;;
60468;SDS011;46316;47.582;10.238;2022-07-25T13:58:32;7.75;;;7.05;;
60468;SDS011;46316;47.582;10.238;2022-07-25T14:00:57;8.77;;;7.35;;
60468;SDS011;46316;47.582;10.238;2022-07-25T14:03:23;11.18;;;7.03;;
60468;SDS011;46316;47.582;10.238;2022-07-25T14:05:49;7.18;;;6.57;;
60468;SDS011;46316;47.582;10.238;2022-07-25T14:08:14;7.60;;;6.82;;
60468;SDS011;46316;47.582;10.238;2022-07-25T14:10:40;7.80;;;7.10;;
60468;SDS011;46316;47.582;10.238;2022-07-25T14:13:06;7.53;;;6.90;;
60468;SDS011;46316;47.582;10.238;2022-07-25T14:15:31;7.22;;;6.63;;
60468;SDS011;46316;47.582;10.238;2022-07-25T14:17:57;7.63;;;6.93;;
60468;SDS011;46316;47.582;10.238;2022-07-25T14:20:22;6.90;;;6.30;;
60468;SDS011;46316;47.582;10.238;2022-07-25T14:22:48;8.13;;;7.32;;
60468;SDS011;46316;47.582;10.238;2022-07-25T14:25:14;7.38;;;6.68;;
60468;SDS011;46316;47.582;10.238;2022-07-25T14:27:40;7.38;;;6.78;;
60468;SDS011;46316;47.582;10.238;2022-07-25T14:30:07;7.50;;;6.90;;
60468;SDS011;46316;47.582;10.238;2022-07-25T14:32:33;7.10;;;6.57;;
60468;SDS011;46316;47.582;10.238;2022-07-25T14:34:59;7.20;;;6.60;;
60468;SDS011;46316;47.582;10.238;2022-07-25T14:37:26;7.45;;;6.80;;
60468;SDS011;46316;47.582;10.238;2022-07-25T14:39:52;7.65;;;6.88;;
60468;SDS011;46316;47.582;10.238;2022-07-25T14:42:18;7.38;;;6.78;;
60468;SDS011;46316;47.582;10.238;2022-07-25T14:44:43;7.43;;;6.82;;
60468;SDS011;46316;47.582;10.238;2022-07-25T14:47:09;7.45;;;6.32;;
60468;SDS011;46316;47.582;10.238;2022-07-25T14:49:34;7.10;;;6.50;;
60468;SDS011;46316;47.582;10.238;2022-07-25T14:52:00;7.88;;;6.68;;
60468;SDS011;46316;47.582;10.238;2022-07-25T14:54:26;6.82;;;6.20;;
60468;SDS011;46316;47.582;10.238;2022-07-25T14:56:52;6.72;;;6.20;;
60468;SDS011;46316;47.582;10.238;2022-07-25T14:59:19;7.63;;;6.85;;
60468;SDS011;46316;47.582;10.238;2022-07-25T15:01:45;7.38;;;6.70;;
60468;SDS011;46316;47.582;10.238;2022-07-25T15:04:10;7.63;;;6.13;;
60468;SDS011;46316;47.582;10.238;2022-07-25T15:06:36;7.60;;;6.90;;
60468;SDS011;46316;47.582;10.238;2022-07-25T15:09:02;6.90;;;6.30;;
60468;SDS011;46316;47.582;10.238;2022-07-25T15:11:28;6.57;;;6.07;;
60468;SDS011;46316;47.582;10.238;2022-07-25T15:13:53;7.07;;;6.38;;
60468;SDS011;46316;47.582;10.238;2022-07-25T15:16:19;6.45;;;5.85;;
60468;SDS011;46316;47.582;10.238;2022-07-25T15:18:44;6.72;;;6.13;;
60468;SDS011;46316;47.582;10.238;2022-07-25T15:21:10;6.75;;;6.07;;
60468;SDS011;46316;47.582;10.238;2022-07-25T15:23:36;9.05;;;6.57;;
60468;SDS011;46316;47.582;10.238;2022-07-25T15:26:02;6.40;;;5.70;;
60468;SDS011;46316;47.582;10.238;2022-07-25T15:28:29;6.30;;;5.82;;